Time;durP1;ratioP1;P1;durP2;ratioP2;P2;SDS_P1;SDS_P2;PMS_P1;PMS_P2;Temp;Humidity;BMP_temperature;BMP_pressure;BME280_temperature;BME280_humidity;BME280_pressure;Samples;Min_cycle;Max_cycle;Signal;HPM_P1;HPM_P2
2022/07/14 00:01:01;;;;;;;2.90;1.15;;;22.50;60.90;;;;;;4887317;29;20482;-66
2022/07/14 00:03:29;;;;;;;1.90;0.90;;;22.50;61.10;;;;;;4892667;29;20399;-66
2022/07/14 00:05:56;;;;;;;2.10;1.00;;;22.40;61.50;;;;;;4897231;29;20052;-68
2022/07/14 00:08:24;;;;;;;1.67;0.90;;;22.40;61.60;;;;;;4888711;29;20045;-67
2022/07/14 00:10:51;;;;;;;1.20;0.90;;;22.40;61.70;;;;;;4894897;29;20105;-66
2022/07/14 00:13:18;;;;;;;3.40;1.35;;;22.40;61.90;;;;;;4897213;29;20520;-66
2022/07/14 00:15:45;;;;;;;2.40;1.13;;;22.30;62.00;;;;;;4901496;29;20064;-67
2022/07/14 00:18:12;;;;;;;3.33;1.30;;;22.30;62.20;;;;;;4896319;29;20049;-67
2022/07/14 00:20:39;;;;;;;1.77;0.90;;;22.30;62.10;;;;;;4891537;29;20483;-66
2022/07/14 00:23:06;;;;;;;2.22;1.00;;;22.30;62.20;;;;;;4894657;29;20052;-66
2022/07/14 00:25:35;;;;;;;2.92;1.15;;;22.30;62.10;;;;;;4891446;29;20499;-65
2022/07/14 00:28:02;;;;;;;5.22;1.13;;;22.30;62.20;;;;;;4894429;29;20070;-66
2022/07/14 00:30:29;;;;;;;3.15;1.10;;;22.30;62.50;;;;;;4897635;29;20066;-65
2022/07/14 00:32:56;;;;;;;1.60;1.00;;;22.30;62.60;;;;;;4884087;29;20056;-66
2022/07/14 00:35:23;;;;;;;2.40;1.10;;;22.20;62.80;;;;;;4905520;29;20502;-67
2022/07/14 00:37:51;;;;;;;3.95;1.17;;;22.20;62.90;;;;;;4890316;29;20048;-64
2022/07/14 00:40:18;;;;;;;3.78;1.13;;;22.20;63.10;;;;;;4892819;29;20572;-66
2022/07/14 00:42:49;;;;;;;4.90;1.00;;;22.20;63.20;;;;;;4899137;29;20132;-65
2022/07/14 00:45:18;;;;;;;2.47;1.10;;;22.20;63.10;;;;;;4889811;29;20060;-65
2022/07/14 00:47:46;;;;;;;1.67;0.82;;;22.20;63.00;;;;;;4890717;29;20083;-66
2022/07/14 00:50:15;;;;;;;2.90;1.30;;;22.20;63.00;;;;;;4888415;29;20568;-64
2022/07/14 00:52:46;;;;;;;1.63;1.00;;;22.20;63.10;;;;;;4898894;29;20550;-66
2022/07/14 00:55:14;;;;;;;1.65;1.08;;;22.20;63.00;;;;;;4897331;29;20450;-64
2022/07/14 00:57:42;;;;;;;3.35;1.15;;;22.20;62.90;;;;;;4886254;29;20053;-66
2022/07/14 01:00:13;;;;;;;3.45;1.48;;;22.20;62.80;;;;;;4891016;29;20087;-67
2022/07/14 01:02:41;;;;;;;4.22;1.52;;;22.20;62.80;;;;;;4890606;29;20056;-66
2022/07/14 01:05:09;;;;;;;1.95;1.10;;;22.20;63.10;;;;;;4889975;29;20049;-64
2022/07/14 01:07:36;;;;;;;1.80;0.95;;;22.10;63.50;;;;;;4901678;29;20172;-65
2022/07/14 01:10:04;;;;;;;3.05;1.13;;;22.10;63.80;;;;;;4887498;29;20084;-67
2022/07/14 01:12:31;;;;;;;2.30;1.20;;;22.10;63.80;;;;;;4881257;29;20139;-66
2022/07/14 01:14:58;;;;;;;2.33;1.13;;;22.10;63.90;;;;;;4895473;29;20056;-67
2022/07/14 01:17:27;;;;;;;2.78;1.20;;;22.10;63.80;;;;;;4886908;29;20045;-67
2022/07/14 01:19:54;;;;;;;3.60;1.20;;;22.10;63.70;;;;;;4894295;29;20516;-66
2022/07/14 01:22:22;;;;;;;1.80;1.00;;;22.10;64.00;;;;;;4889203;29;20402;-68
2022/07/14 01:24:49;;;;;;;1.85;0.93;;;22.00;64.20;;;;;;4887907;29;20526;-68
2022/07/14 01:27:16;;;;;;;1.77;1.00;;;22.00;64.40;;;;;;4893548;29;20143;-69
2022/07/14 01:29:43;;;;;;;4.03;1.42;;;22.00;64.50;;;;;;4891949;29;20065;-69
2022/07/14 01:32:11;;;;;;;2.65;1.48;;;21.90;64.50;;;;;;4894757;29;20109;-67
2022/07/14 01:34:38;;;;;;;4.18;1.10;;;22.00;64.70;;;;;;4888485;29;20058;-68
2022/07/14 01:37:04;;;;;;;3.03;1.27;;;21.90;64.70;;;;;;4894120;29;20052;-69
2022/07/14 01:39:33;;;;;;;3.05;1.35;;;21.90;64.80;;;;;;4895064;29;20140;-67
2022/07/14 01:42:00;;;;;;;1.40;1.02;;;21.90;64.80;;;;;;4894197;29;20059;-68
2022/07/14 01:44:27;;;;;;;4.03;1.25;;;21.90;64.80;;;;;;4885961;29;20056;-68
2022/07/14 01:46:54;;;;;;;2.28;1.25;;;21.90;64.90;;;;;;4894178;29;20084;-69
2022/07/14 01:49:21;;;;;;;2.78;1.50;;;21.90;64.80;;;;;;4900576;29;20059;-67
2022/07/14 01:51:48;;;;;;;3.35;1.40;;;21.90;64.80;;;;;;4882098;29;20064;-68
2022/07/14 01:54:15;;;;;;;5.47;1.25;;;21.90;64.80;;;;;;4898977;29;20051;-68
2022/07/14 01:56:45;;;;;;;3.95;1.30;;;21.90;64.90;;;;;;4899353;29;20052;-67
2022/07/14 01:59:14;;;;;;;2.15;1.27;;;21.90;65.00;;;;;;4889168;29;20048;-68
2022/07/14 02:01:41;;;;;;;2.85;1.30;;;21.80;65.40;;;;;;4890143;29;20044;-68
2022/07/14 02:04:10;;;;;;;6.22;1.52;;;21.70;65.80;;;;;;4891628;29;20346;-67
2022/07/14 02:06:38;;;;;;;2.40;1.00;;;21.70;66.20;;;;;;4896129;29;20047;-68
2022/07/14 02:09:06;;;;;;;2.33;1.30;;;21.70;66.70;;;;;;4884614;29;20044;-68
2022/07/14 02:14:19;;;;;;;1.88;1.23;;;21.70;67.20;;;;;;4895593;29;20053;-71
2022/07/14 02:16:46;;;;;;;3.17;1.52;;;21.60;67.70;;;;;;4866567;29;20049;-65
2022/07/14 02:19:16;;;;;;;9.82;1.58;;;21.70;67.20;;;;;;4894736;29;20045;-63
2022/07/14 02:21:44;;;;;;;2.97;1.25;;;22.00;66.50;;;;;;4901460;29;20153;-66
2022/07/14 02:24:11;;;;;;;4.30;2.00;;;22.10;66.00;;;;;;4896818;29;20068;-65
2022/07/14 02:26:40;;;;;;;6.63;1.65;;;22.10;65.90;;;;;;4896553;29;20202;-63
2022/07/14 02:29:07;;;;;;;5.65;1.38;;;22.10;65.90;;;;;;4894067;29;20147;-67
2022/07/14 02:31:36;;;;;;;4.68;1.40;;;22.10;65.90;;;;;;4893701;29;20054;-66
2022/07/14 02:34:03;;;;;;;2.20;1.25;;;22.10;66.10;;;;;;4891049;29;20051;-65
2022/07/14 02:36:31;;;;;;;3.25;1.23;;;22.10;66.10;;;;;;4872708;29;20052;-64
2022/07/14 02:38:59;;;;;;;4.70;1.65;;;22.10;66.40;;;;;;4895332;29;20053;-67
2022/07/14 02:41:26;;;;;;;1.90;1.10;;;22.00;66.70;;;;;;4899710;29;20055;-66
2022/07/14 02:43:53;;;;;;;5.50;1.50;;;21.80;67.10;;;;;;4893986;29;20077;-65
2022/07/14 02:46:20;;;;;;;2.72;1.30;;;21.90;66.90;;;;;;4905073;29;20479;-67
2022/07/14 02:48:50;;;;;;;3.50;1.23;;;21.90;66.70;;;;;;4889353;29;20507;-66
2022/07/14 02:51:16;;;;;;;3.25;1.33;;;21.90;66.80;;;;;;4898769;29;20056;-62
2022/07/14 02:53:45;;;;;;;3.80;1.48;;;21.80;67.10;;;;;;4897829;29;20763;-64
2022/07/14 02:56:12;;;;;;;4.65;1.67;;;21.80;67.30;;;;;;4897390;29;20048;-66
2022/07/14 02:58:40;;;;;;;2.72;1.20;;;21.80;67.20;;;;;;4903768;29;20056;-65
2022/07/14 03:01:09;;;;;;;5.00;1.70;;;21.90;66.90;;;;;;4887673;29;20048;-68
2022/07/14 03:03:37;;;;;;;4.47;1.63;;;22.00;66.70;;;;;;4887743;29;20060;-69
2022/07/14 03:06:12;;;;;;;2.92;1.40;;;21.90;67.00;;;;;;4890472;29;20053;-65
2022/07/14 03:08:39;;;;;;;2.70;1.40;;;21.80;67.10;;;;;;4883731;29;20567;-70
2022/07/14 03:11:07;;;;;;;3.20;1.35;;;21.90;67.40;;;;;;4890794;29;20071;-65
2022/07/14 03:13:35;;;;;;;3.35;1.55;;;21.70;67.90;;;;;;4898787;29;20454;-69
2022/07/14 03:16:02;;;;;;;3.13;1.63;;;21.70;67.90;;;;;;4890638;29;20086;-67
2022/07/14 03:18:30;;;;;;;3.33;1.63;;;21.70;67.90;;;;;;4895371;29;20657;-66
2022/07/14 03:20:57;;;;;;;3.95;1.88;;;21.70;68.10;;;;;;4886100;29;20044;-68
2022/07/14 03:23:26;;;;;;;3.63;1.33;;;21.60;68.30;;;;;;4892416;29;20049;-67
2022/07/14 03:25:54;;;;;;;3.45;1.63;;;21.50;68.70;;;;;;4888100;29;20048;-68
2022/07/14 03:28:21;;;;;;;4.78;1.70;;;21.50;68.90;;;;;;4883580;29;20421;-66
2022/07/14 03:30:54;;;;;;;2.60;1.38;;;21.50;69.00;;;;;;4892322;29;20052;-65
2022/07/14 03:33:21;;;;;;;4.85;1.88;;;21.50;68.70;;;;;;4884226;29;20063;-64
2022/07/14 03:35:49;;;;;;;3.85;1.92;;;21.50;68.70;;;;;;4887608;29;20128;-63
2022/07/14 03:38:16;;;;;;;5.78;1.35;;;21.50;68.80;;;;;;4890861;29;20060;-67
2022/07/14 03:40:46;;;;;;;3.15;1.30;;;21.60;68.70;;;;;;4891185;29;20447;-65
2022/07/14 03:43:14;;;;;;;5.07;1.90;;;21.60;68.40;;;;;;4886812;29;20124;-67
2022/07/14 03:45:42;;;;;;;3.55;1.45;;;21.60;68.40;;;;;;4886393;29;20427;-66
2022/07/14 03:48:16;;;;;;;3.47;1.52;;;21.60;68.50;;;;;;4891328;29;20045;-66
2022/07/14 03:50:48;;;;;;;3.08;1.45;;;21.60;68.10;;;;;;4882445;29;20666;-66
2022/07/14 03:53:16;;;;;;;2.78;1.40;;;21.70;67.80;;;;;;4887487;29;20045;-67
2022/07/14 03:55:45;;;;;;;3.65;1.77;;;21.60;67.80;;;;;;4884085;29;20044;-67
2022/07/14 03:58:17;;;;;;;4.28;1.38;;;21.80;67.60;;;;;;4881384;29;20566;-66
2022/07/14 04:00:45;;;;;;;3.28;1.50;;;21.90;67.10;;;;;;4890069;29;20059;-66
2022/07/14 04:03:12;;;;;;;3.08;1.17;;;21.90;67.30;;;;;;4891245;29;20505;-66
2022/07/14 04:05:39;;;;;;;7.72;1.60;;;21.90;67.10;;;;;;4896493;29;20167;-68
2022/07/14 04:08:11;;;;;;;1.65;0.88;;;21.90;67.30;;;;;;4878825;29;20044;-67
2022/07/14 04:10:59;;;;;;;1.85;1.10;;;21.60;68.00;;;;;;4884289;29;20379;-67
2022/07/14 04:13:32;;;;;;;3.67;1.27;;;21.50;68.80;;;;;;4898006;29;20414;-67
2022/07/14 04:16:05;;;;;;;2.53;1.23;;;21.40;69.20;;;;;;4888713;29;20064;-67
2022/07/14 04:18:37;;;;;;;2.88;1.52;;;21.30;69.50;;;;;;4909946;29;20068;-67
2022/07/14 04:21:05;;;;;;;4.38;1.50;;;21.20;69.70;;;;;;4895339;29;20098;-67
2022/07/14 04:23:33;;;;;;;3.50;1.45;;;21.20;69.90;;;;;;4896152;29;20056;-66
2022/07/14 04:26:01;;;;;;;3.42;1.35;;;21.10;70.10;;;;;;4893332;29;20566;-66
2022/07/14 04:28:38;;;;;;;3.70;1.50;;;21.10;70.10;;;;;;4901237;29;20060;-66
2022/07/14 04:31:07;;;;;;;3.03;1.70;;;21.10;69.90;;;;;;4891334;29;20163;-66
2022/07/14 04:33:37;;;;;;;4.38;1.38;;;21.10;69.90;;;;;;4890020;29;20064;-67
2022/07/14 04:36:06;;;;;;;4.05;1.90;;;21.10;70.40;;;;;;4883166;29;20415;-66
2022/07/14 04:38:38;;;;;;;4.95;1.70;;;21.00;71.00;;;;;;4890391;29;20096;-67
2022/07/14 04:41:07;;;;;;;3.72;1.45;;;21.00;71.40;;;;;;4887158;29;20052;-66
2022/07/14 04:43:39;;;;;;;3.35;1.70;;;21.00;71.90;;;;;;4878979;29;20056;-67
2022/07/14 04:46:09;;;;;;;3.67;1.50;;;20.90;72.10;;;;;;4888624;29;20052;-66
2022/07/14 04:54:12;;;;;;;2.90;1.60;;;21.00;72.10;;;;;;4893030;29;20111;-65
2022/07/14 04:57:12;;;;;;;3.08;1.70;;;21.00;72.00;;;;;;4863794;29;20064;-65
2022/07/14 04:59:47;;;;;;;3.83;1.65;;;21.00;71.80;;;;;;4870569;29;20053;-65
2022/07/14 05:02:15;;;;;;;4.45;1.88;;;21.00;72.00;;;;;;4878697;29;20056;-66
2022/07/14 05:04:44;;;;;;;3.03;1.45;;;20.90;72.00;;;;;;4894754;29;20063;-65
2022/07/14 05:07:21;;;;;;;5.75;1.85;;;20.90;72.20;;;;;;4888299;29;20109;-65
2022/07/14 05:10:03;;;;;;;3.60;1.67;;;20.90;72.60;;;;;;4888943;29;20067;-66
2022/07/14 05:12:31;;;;;;;5.75;1.70;;;20.90;72.20;;;;;;4884489;29;20057;-65
2022/07/14 05:15:03;;;;;;;3.75;1.55;;;21.00;72.00;;;;;;4886515;29;20056;-66
2022/07/14 05:17:31;;;;;;;3.35;1.48;;;21.00;71.90;;;;;;4885770;29;20124;-66
2022/07/14 05:20:02;;;;;;;3.72;1.73;;;21.00;71.80;;;;;;4894263;29;20052;-66
2022/07/14 05:22:38;;;;;;;2.78;1.50;;;21.00;72.10;;;;;;4886008;29;20064;-66
2022/07/14 05:25:11;;;;;;;4.55;1.70;;;21.00;72.10;;;;;;4879530;29;20072;-65
2022/07/14 05:27:42;;;;;;;4.80;2.25;;;21.00;72.00;;;;;;4889626;29;20524;-69
2022/07/14 05:30:19;;;;;;;;;;;21.10;72.10;;;;;;4896229;29;20048;-64
2022/07/14 05:32:47;;;;;;;2.75;1.45;;;21.00;72.30;;;;;;4877693;29;19928;-64
2022/07/14 05:35:15;;;;;;;3.40;1.40;;;21.10;72.40;;;;;;4882041;29;20665;-65
2022/07/14 05:37:46;;;;;;;2.83;1.42;;;21.10;72.50;;;;;;4882662;29;20049;-65
2022/07/14 05:40:13;;;;;;;2.78;1.55;;;21.10;72.20;;;;;;4895577;29;20100;-66
2022/07/14 05:42:51;;;;;;;3.95;1.90;;;21.10;72.00;;;;;;4885131;29;20701;-66
2022/07/14 05:45:23;;;;;;;4.60;1.30;;;21.20;71.70;;;;;;4887408;29;20053;-65
2022/07/14 05:47:50;;;;;;;4.15;1.70;;;21.30;71.40;;;;;;4908606;29;20072;-64
2022/07/14 05:50:20;;;;;;;;;;;21.40;71.20;;;;;;4879631;29;20049;-65
2022/07/14 05:52:54;;;;;;;5.50;1.90;;;21.30;71.20;;;;;;4892698;29;20373;-65
2022/07/14 05:55:22;;;;;;;2.88;1.40;;;21.40;71.30;;;;;;4894094;29;20056;-66
2022/07/14 05:57:51;;;;;;;6.07;1.70;;;21.40;71.40;;;;;;4905203;29;20143;-66
2022/07/14 06:00:21;;;;;;;5.28;2.00;;;21.40;71.40;;;;;;4885138;29;20489;-66
2022/07/14 06:02:52;;;;;;;3.13;1.50;;;21.50;71.20;;;;;;4888879;29;20048;-66
2022/07/14 06:05:22;;;;;;;7.18;1.73;;;21.50;71.40;;;;;;4891991;29;20525;-66
2022/07/14 06:07:51;;;;;;;4.10;2.35;;;21.50;71.50;;;;;;4859739;29;20045;-66
2022/07/14 06:10:19;;;;;;;4.75;2.70;;;21.50;71.40;;;;;;4890526;29;20057;-67
2022/07/14 06:12:49;;;;;;;5.57;2.65;;;21.60;71.10;;;;;;4888976;29;20141;-66
2022/07/14 06:15:16;;;;;;;8.02;2.80;;;21.70;70.70;;;;;;4879676;29;20048;-66
2022/07/14 06:17:43;;;;;;;5.60;2.47;;;21.80;70.40;;;;;;4859669;29;20051;-67
2022/07/14 06:20:13;;;;;;;4.43;2.13;;;21.80;70.50;;;;;;4883842;29;20064;-66
2022/07/14 06:22:43;;;;;;;5.20;2.15;;;21.90;70.40;;;;;;4886173;29;20052;-66
2022/07/14 06:25:13;;;;;;;4.53;1.85;;;21.90;70.50;;;;;;4883424;29;20410;-67
2022/07/14 06:27:41;;;;;;;5.03;2.50;;;21.90;70.50;;;;;;4888137;29;20068;-65
2022/07/14 06:30:10;;;;;;;5.78;1.90;;;22.00;70.50;;;;;;4876230;29;20047;-65
2022/07/14 06:32:41;;;;;;;4.95;1.90;;;22.10;70.50;;;;;;4900134;29;20446;-64
2022/07/14 06:35:17;;;;;;;3.38;1.90;;;22.10;70.40;;;;;;4910110;29;20060;-65
2022/07/14 06:37:44;;;;;;;5.90;1.75;;;22.10;69.90;;;;;;4869555;29;20041;-65
2022/07/14 06:40:13;;;;;;;3.55;1.85;;;22.10;69.60;;;;;;4881751;29;20057;-65
2022/07/14 06:42:44;;;;;;;3.83;1.80;;;22.10;69.90;;;;;;4880539;29;20140;-65
2022/07/14 06:45:16;;;;;;;3.80;1.63;;;22.20;69.40;;;;;;4874059;29;20547;-66
2022/07/14 06:47:45;;;;;;;3.88;1.42;;;22.30;69.50;;;;;;4879634;29;20049;-66
2022/07/14 06:50:18;;;;;;;3.85;1.83;;;22.40;69.00;;;;;;4873961;29;20089;-67
2022/07/14 06:52:48;;;;;;;2.88;1.50;;;22.50;68.90;;;;;;4887912;29;20054;-67
2022/07/14 06:55:21;;;;;;;4.75;1.95;;;22.60;68.50;;;;;;4883659;29;20041;-66
2022/07/14 06:57:48;;;;;;;8.40;2.05;;;22.70;68.50;;;;;;4878482;29;20135;-66
2022/07/14 07:00:16;;;;;;;4.88;1.98;;;22.70;68.30;;;;;;4891474;29;20048;-66
2022/07/14 07:02:43;;;;;;;3.80;1.90;;;22.80;68.10;;;;;;4890410;29;20498;-66
2022/07/14 07:08:02;;;;;;;6.30;1.60;;;23.00;68.10;;;;;;4893597;29;20041;-66
2022/07/14 07:10:40;;;;;;;4.63;2.00;;;23.00;67.90;;;;;;4882169;29;20089;-66
2022/07/14 07:13:10;;;;;;;5.15;1.48;;;23.10;67.30;;;;;;4890613;29;20056;-66
2022/07/14 07:15:40;;;;;;;2.95;1.60;;;23.10;67.50;;;;;;4881499;29;20053;-66
2022/07/14 07:18:09;;;;;;;2.58;1.55;;;23.20;67.40;;;;;;4887785;29;20791;-66
2022/07/14 07:20:39;;;;;;;3.40;1.48;;;23.20;67.10;;;;;;4890924;29;20051;-66
2022/07/14 07:23:14;;;;;;;3.75;1.60;;;23.20;66.70;;;;;;4874338;29;20049;-66
2022/07/14 07:25:45;;;;;;;2.97;1.13;;;23.30;66.70;;;;;;4890345;29;20092;-67
2022/07/14 07:28:12;;;;;;;2.53;1.40;;;23.30;66.50;;;;;;4885917;29;20860;-65
2022/07/14 07:30:39;;;;;;;3.05;1.50;;;23.30;66.40;;;;;;4886709;29;20432;-66
2022/07/14 07:33:09;;;;;;;2.85;1.55;;;23.30;66.30;;;;;;4889530;29;20056;-65
2022/07/14 07:35:39;;;;;;;3.08;1.50;;;23.30;66.00;;;;;;4886701;29;20051;-65
2022/07/14 07:38:08;;;;;;;3.08;1.50;;;23.40;66.00;;;;;;4885730;29;20490;-65
2022/07/14 07:40:36;;;;;;;4.45;1.90;;;23.40;65.30;;;;;;4892531;29;20095;-66
2022/07/14 07:43:04;;;;;;;3.25;1.83;;;23.40;65.00;;;;;;4887543;29;20056;-65
2022/07/14 07:45:31;;;;;;;4.35;1.65;;;23.50;64.90;;;;;;4889017;29;20061;-66
2022/07/14 07:48:03;;;;;;;2.10;1.15;;;23.50;64.70;;;;;;4879729;29;20436;-67
2022/07/14 07:50:31;;;;;;;2.83;1.50;;;23.60;64.60;;;;;;4885681;29;20053;-67
2022/07/14 07:52:58;;;;;;;3.83;1.77;;;23.60;64.40;;;;;;4890747;29;20049;-66
2022/07/14 07:55:26;;;;;;;3.58;1.70;;;23.60;64.00;;;;;;4888574;29;20056;-65
2022/07/14 07:57:55;;;;;;;4.65;1.77;;;23.70;63.70;;;;;;4889164;29;20064;-66
2022/07/14 08:00:24;;;;;;;3.60;1.70;;;23.80;63.50;;;;;;4889204;29;20056;-69
2022/07/14 08:02:52;;;;;;;3.88;1.50;;;23.80;63.60;;;;;;4881808;29;20131;-69
2022/07/14 08:05:21;;;;;;;4.18;1.65;;;23.90;63.40;;;;;;4889277;29;20068;-68
2022/07/14 08:07:49;;;;;;;3.60;1.60;;;23.90;63.50;;;;;;4887088;29;20061;-68
2022/07/14 08:10:16;;;;;;;4.03;1.67;;;24.00;63.30;;;;;;4887984;29;20049;-69
2022/07/14 08:12:45;;;;;;;2.97;1.67;;;24.10;63.10;;;;;;4891075;29;20049;-71
2022/07/14 08:15:14;;;;;;;3.00;1.57;;;24.10;63.10;;;;;;4891251;29;20499;-69
2022/07/14 08:17:44;;;;;;;4.18;1.50;;;24.10;62.60;;;;;;4886572;29;20469;-69
2022/07/14 08:20:12;;;;;;;;;;;24.10;62.50;;;;;;4895669;29;20053;-68
2022/07/14 08:22:39;;;;;;;3.00;1.70;;;24.10;62.20;;;;;;4884420;29;20085;-69
2022/07/14 08:25:08;;;;;;;2.20;1.30;;;24.20;61.90;;;;;;4881013;29;20076;-69
2022/07/14 08:27:39;;;;;;;3.10;1.50;;;24.20;61.80;;;;;;4889736;29;20119;-69
2022/07/14 08:30:18;;;;;;;2.63;1.30;;;24.20;61.60;;;;;;4885460;29;20048;-69
2022/07/14 08:32:50;;;;;;;3.03;1.58;;;24.20;61.60;;;;;;4878437;29;20067;-69
2022/07/14 08:35:24;;;;;;;4.05;1.45;;;24.40;61.10;;;;;;4872104;29;20048;-68
2022/07/14 08:37:57;;;;;;;4.47;1.80;;;24.60;60.70;;;;;;4878075;29;20051;-69
2022/07/14 08:40:28;;;;;;;3.72;1.55;;;24.70;60.70;;;;;;4886969;29;20061;-68
2022/07/14 08:42:57;;;;;;;2.42;1.38;;;24.80;60.70;;;;;;4885364;29;21258;-69
2022/07/14 08:45:29;;;;;;;2.10;1.27;;;24.80;60.50;;;;;;4882035;29;20395;-69
2022/07/14 08:47:56;;;;;;;2.80;1.60;;;25.00;60.30;;;;;;4886221;29;20044;-69
2022/07/14 08:50:28;;;;;;;2.58;1.20;;;25.20;60.10;;;;;;4886977;29;20064;-69
2022/07/14 08:53:05;;;;;;;2.88;1.33;;;25.30;60.00;;;;;;4885542;29;20045;-69
2022/07/14 08:55:33;;;;;;;3.97;1.70;;;25.40;59.90;;;;;;4875451;29;20056;-69
2022/07/14 08:58:04;;;;;;;3.40;1.50;;;25.60;59.40;;;;;;4886735;29;21778;-69
2022/07/14 09:00:33;;;;;;;3.95;1.75;;;25.80;59.00;;;;;;4891160;29;20136;-69
2022/07/14 09:03:00;;;;;;;3.75;1.80;;;26.00;58.40;;;;;;4879313;29;20063;-69
2022/07/14 09:05:27;;;;;;;6.00;2.33;;;26.10;58.10;;;;;;4889520;29;20156;-69
2022/07/14 09:07:58;;;;;;;4.95;2.60;;;26.20;57.90;;;;;;4871369;29;20066;-71
2022/07/14 09:10:27;;;;;;;5.95;2.13;;;26.40;57.50;;;;;;4873347;29;20752;-70
2022/07/14 09:13:10;;;;;;;3.70;2.00;;;26.60;56.40;;;;;;4887460;29;20059;-71
2022/07/14 09:15:45;;;;;;;4.78;2.70;;;26.80;55.80;;;;;;4877459;29;20061;-70
2022/07/14 09:18:20;;;;;;;4.75;2.22;;;26.90;55.60;;;;;;4886453;29;20052;-71
2022/07/14 09:20:47;;;;;;;4.40;2.38;;;27.00;55.40;;;;;;4885958;29;20135;-70
2022/07/14 09:23:14;;;;;;;6.05;2.40;;;27.10;54.40;;;;;;4885764;29;20049;-71
2022/07/14 09:25:42;;;;;;;5.15;2.20;;;27.20;54.40;;;;;;4882226;29;20517;-70
2022/07/14 09:28:09;;;;;;;2.45;1.60;;;27.20;54.30;;;;;;4884890;29;20479;-71
2022/07/14 09:30:38;;;;;;;4.53;2.28;;;27.30;53.80;;;;;;4890149;29;20068;-70
2022/07/14 09:33:05;;;;;;;3.05;1.52;;;27.30;53.70;;;;;;4889030;29;20144;-69
2022/07/14 09:35:41;;;;;;;2.38;1.40;;;27.40;53.00;;;;;;4879435;29;20045;-71
2022/07/14 09:38:20;;;;;;;3.95;1.45;;;27.50;53.20;;;;;;4888803;29;20190;-71
2022/07/14 09:40:48;;;;;;;4.07;1.50;;;27.50;52.90;;;;;;4882125;29;20052;-69
2022/07/14 09:43:16;;;;;;;3.55;1.55;;;27.60;52.90;;;;;;4884462;29;20123;-70
2022/07/14 09:45:46;;;;;;;2.67;1.30;;;27.60;52.90;;;;;;4874590;29;20079;-70
2022/07/14 09:48:14;;;;;;;4.43;2.25;;;27.70;52.60;;;;;;4886234;29;20179;-70
2022/07/14 09:50:47;;;;;;;5.47;2.30;;;27.80;52.50;;;;;;4890138;29;20049;-72
2022/07/14 09:53:25;;;;;;;4.72;2.20;;;28.00;52.20;;;;;;4879667;29;20147;-70
2022/07/14 09:55:56;;;;;;;4.38;2.20;;;28.10;51.80;;;;;;4888510;29;20479;-70
2022/07/14 09:58:25;;;;;;;3.33;1.45;;;28.30;51.80;;;;;;4892315;29;20503;-71
2022/07/14 10:01:02;;;;;;;4.38;1.80;;;28.50;51.20;;;;;;4888533;29;20558;-70
2022/07/14 10:03:31;;;;;;;3.20;1.45;;;28.60;51.10;;;;;;4883009;29;20076;-70
2022/07/14 10:05:59;;;;;;;6.85;1.48;;;28.60;49.50;;;;;;4885223;29;23464;-70
2022/07/14 10:08:28;;;;;;;2.72;1.55;;;28.70;49.70;;;;;;4882220;29;20137;-73
2022/07/14 10:10:57;;;;;;;4.10;1.92;;;28.80;49.30;;;;;;4885018;29;20064;-69
2022/07/14 10:13:25;;;;;;;3.45;1.88;;;29.00;49.50;;;;;;4885051;29;20048;-70
2022/07/14 10:15:54;;;;;;;4.00;1.80;;;29.10;48.90;;;;;;4885164;29;20051;-70
2022/07/14 10:18:23;;;;;;;4.90;1.60;;;29.10;49.10;;;;;;4889199;29;20051;-72
2022/07/14 10:20:54;;;;;;;5.03;2.10;;;29.10;49.10;;;;;;4877270;29;20045;-71
2022/07/14 10:23:22;;;;;;;4.38;2.25;;;29.00;48.70;;;;;;4876904;29;20398;-69
2022/07/14 10:25:52;;;;;;;6.00;2.17;;;29.00;48.80;;;;;;4887101;29;20048;-69
2022/07/14 10:28:19;;;;;;;3.70;2.00;;;28.90;48.70;;;;;;4874215;29;20052;-70
2022/07/14 10:30:57;;;;;;;3.63;1.98;;;28.80;48.80;;;;;;4877279;29;20100;-70
2022/07/14 10:33:34;;;;;;;3.88;1.80;;;28.70;48.80;;;;;;4888780;29;20141;-71
2022/07/14 10:36:09;;;;;;;4.45;1.80;;;28.60;48.70;;;;;;4890311;29;20051;-71
2022/07/14 10:39:03;;;;;;;3.25;1.70;;;28.50;49.00;;;;;;4900452;29;20422;-69
2022/07/14 10:41:55;;;;;;;6.35;2.10;;;28.40;49.10;;;;;;4887146;29;20052;-71
2022/07/14 10:44:24;;;;;;;3.92;1.60;;;28.30;49.20;;;;;;4880679;29;20045;-70
2022/07/14 10:47:05;;;;;;;2.78;1.70;;;28.30;49.50;;;;;;4883830;29;20037;-70
2022/07/14 10:50:07;;;;;;;3.75;1.83;;;28.30;49.40;;;;;;4881692;29;20051;-72
2022/07/14 10:52:35;;;;;;;4.03;1.92;;;28.20;49.60;;;;;;4889078;29;20515;-69
2022/07/14 10:55:13;;;;;;;5.90;2.10;;;28.10;49.50;;;;;;4895401;29;20067;-71
2022/07/14 10:58:08;;;;;;;6.18;1.88;;;28.10;49.60;;;;;;4885033;29;20257;-70
2022/07/14 11:00:58;;;;;;;3.35;1.65;;;28.10;50.00;;;;;;4883309;29;20049;-72
2022/07/14 11:03:46;;;;;;;3.80;1.88;;;28.10;49.80;;;;;;4895193;29;20051;-72
2022/07/14 11:06:21;;;;;;;2.53;1.70;;;28.20;49.90;;;;;;4889524;29;20071;-71
2022/07/14 11:09:22;;;;;;;3.10;1.73;;;28.20;49.90;;;;;;4891801;29;20041;-70
2022/07/14 11:12:13;;;;;;;4.55;2.00;;;28.30;49.80;;;;;;4888619;29;20410;-72
2022/07/14 11:14:42;;;;;;;4.13;1.50;;;28.40;49.60;;;;;;4884978;29;20060;-69
2022/07/14 11:17:29;;;;;;;4.57;1.92;;;28.40;49.10;;;;;;4888369;29;20060;-70
2022/07/14 11:19:58;;;;;;;5.72;2.03;;;28.40;48.80;;;;;;4888227;29;20057;-71
2022/07/14 11:22:25;;;;;;;4.60;2.08;;;28.40;48.80;;;;;;4881271;29;20056;-72
2022/07/14 11:24:55;;;;;;;5.07;2.53;;;28.50;48.60;;;;;;4888902;29;20047;-69
2022/07/14 11:27:33;;;;;;;3.80;1.75;;;28.50;48.60;;;;;;4894355;29;20040;-70
2022/07/14 11:30:19;;;;;;;;;;;28.50;48.70;;;;;;4891975;29;20061;-70
2022/07/14 11:32:46;;;;;;;3.88;2.17;;;28.50;48.20;;;;;;4888644;29;19966;-70
2022/07/14 11:38:24;;;;;;;4.22;2.10;;;28.60;48.30;;;;;;4878104;29;20080;-72
2022/07/14 11:40:52;;;;;;;7.50;3.28;;;28.70;48.20;;;;;;4880998;29;20053;-70
2022/07/14 11:43:37;;;;;;;6.20;3.63;;;28.90;48.20;;;;;;4893759;29;20060;-71
2022/07/14 11:46:06;;;;;;;7.35;3.90;;;29.10;48.20;;;;;;4887133;29;20060;-71
2022/07/14 11:48:34;;;;;;;;;;;29.10;48.20;;;;;;4884379;29;20169;-70
2022/07/14 11:51:04;;;;;;;7.22;4.07;;;29.10;47.60;;;;;;4885753;29;19927;-69
2022/07/14 11:53:33;;;;;;;5.72;3.67;;;29.20;47.30;;;;;;4891029;29;20356;-70
2022/07/14 11:56:00;;;;;;;6.70;2.78;;;29.30;46.80;;;;;;4881825;29;20049;-70
2022/07/14 11:58:29;;;;;;;4.65;1.90;;;29.30;46.60;;;;;;4883768;29;20064;-70
2022/07/14 12:00:57;;;;;;;3.78;1.70;;;29.30;45.80;;;;;;4888627;29;20057;-69
2022/07/14 12:03:25;;;;;;;3.78;1.90;;;29.20;46.20;;;;;;4893817;29;20477;-71
2022/07/14 12:05:53;;;;;;;3.92;2.10;;;29.20;46.60;;;;;;4891770;29;20048;-71
2022/07/14 12:08:25;;;;;;;5.10;2.20;;;29.20;46.70;;;;;;4894130;29;20076;-71
2022/07/14 12:10:53;;;;;;;6.25;2.38;;;29.20;46.70;;;;;;4893941;29;20053;-71
2022/07/14 12:13:20;;;;;;;5.05;2.47;;;29.30;46.30;;;;;;4900238;29;20048;-69
2022/07/14 12:15:48;;;;;;;4.05;1.88;;;29.50;45.90;;;;;;4894809;29;21147;-70
2022/07/14 12:18:15;;;;;;;3.33;1.90;;;29.60;45.40;;;;;;4880330;29;20060;-71
2022/07/14 12:20:45;;;;;;;3.45;1.73;;;29.60;45.30;;;;;;4889688;29;20092;-71
2022/07/14 12:23:13;;;;;;;4.57;2.08;;;29.60;45.20;;;;;;4892207;29;20419;-70
2022/07/14 12:25:43;;;;;;;4.03;1.80;;;29.60;45.30;;;;;;4894667;29;20053;-70
2022/07/14 12:28:12;;;;;;;3.47;1.80;;;29.60;45.20;;;;;;4891300;29;20048;-71
2022/07/14 12:30:46;;;;;;;;;;;29.70;45.50;;;;;;4889099;29;20056;-68
2022/07/14 12:33:15;;;;;;;5.47;2.42;;;29.80;45.60;;;;;;4894963;29;20577;-70
2022/07/14 12:35:44;;;;;;;5.03;2.00;;;29.90;45.40;;;;;;4886156;29;20061;-70
2022/07/14 12:38:12;;;;;;;6.15;2.25;;;30.00;45.50;;;;;;4895684;29;20052;-71
2022/07/14 12:40:41;;;;;;;3.65;2.30;;;30.00;45.70;;;;;;4894733;29;20423;-71
2022/07/14 12:43:09;;;;;;;3.65;1.70;;;30.00;45.50;;;;;;4881712;29;20057;-71
2022/07/14 12:46:04;;;;;;;3.50;2.05;;;30.00;45.30;;;;;;4890108;29;20087;-72
2022/07/14 12:48:32;;;;;;;4.38;1.88;;;30.00;45.10;;;;;;4888612;29;20517;-71
2022/07/14 12:51:20;;;;;;;5.25;2.28;;;29.90;45.40;;;;;;4901465;29;20048;-71
2022/07/14 12:54:02;;;;;;;3.75;1.90;;;29.80;45.30;;;;;;4898367;29;20061;-70
2022/07/14 12:56:37;;;;;;;7.07;2.30;;;29.70;45.20;;;;;;4877629;29;20048;-71
2022/07/14 12:59:07;;;;;;;6.28;2.53;;;29.60;45.40;;;;;;4890513;29;20052;-70
2022/07/14 13:01:46;;;;;;;5.72;2.33;;;29.50;45.70;;;;;;4885449;29;20071;-71
2022/07/14 13:04:17;;;;;;;3.30;1.98;;;29.30;46.10;;;;;;4891848;29;20083;-71
2022/07/14 13:06:46;;;;;;;5.72;2.42;;;29.40;46.10;;;;;;4901239;29;20048;-71
2022/07/14 13:09:14;;;;;;;;;;;29.30;46.30;;;;;;4899779;29;20048;-70
2022/07/14 13:11:43;;;;;;;5.15;2.15;;;29.40;45.90;;;;;;4896275;29;19924;-71
2022/07/14 13:14:10;;;;;;;;;;;29.40;45.90;;;;;;4895502;29;20053;-71
2022/07/14 13:16:37;;;;;;;5.00;1.90;;;29.50;45.60;;;;;;4885232;29;19931;-71
2022/07/14 13:19:06;;;;;;;3.25;2.00;;;29.50;45.00;;;;;;4898887;29;20107;-68